Flight Briefing for CMB824

Departure Arrival
RAF Ascension Island (FHAW)
Click to view FAA NOTAMS
Grantley Adams International Airport (TBPB)
Click to view FAA NOTAMS
Departure Time Arrival Time
N/A N/A
Aircraft Distance
B757-200SF 2971nm
Departure METAR Arrival METAR
No METAR available for FHAW. TBPB 250300Z 11015KT 9999 SCT024 27/23 Q1014 NOSIG
Suggested Route
EGUPA 0030W 0440N 0850N DOLRO UM791 BGI


View recent IFR Routes data
Notes
USTRANSCOM CONTRACT FLIGHT | PAYLOAD RESTRICTED | ETOPS

Charts and Procedures

Charts for FHAW
No chart available
Charts for TBPB
No chart available

Windy.com Weather Map